Time;durP1;ratioP1;P1;durP2;ratioP2;P2;SDS_P1;SDS_P2;PMS_P1;PMS_P2;Temp;Humidity;BMP_temperature;BMP_pressure;BME280_temperature;BME280_humidity;BME280_pressure;Samples;Min_cycle;Max_cycle;Signal;HPM_P1;HPM_P2
2021/04/28 00:00:34;;;;;;;7.03;5.63;;;9.20;65.90;;;;;;4997557;28;20475;-85
2021/04/28 00:03:09;;;;;;;8.60;5.83;;;9.20;66.60;;;;;;5013195;28;20425;-84
2021/04/28 00:05:36;;;;;;;6.40;5.80;;;9.10;66.30;;;;;;4994682;28;20752;-84
2021/04/28 00:08:08;;;;;;;5.80;5.30;;;9.10;67.30;;;;;;5010126;28;20782;-84
2021/04/28 00:10:40;;;;;;;8.50;5.30;;;9.10;68.30;;;;;;5010260;28;20515;-84
2021/04/28 00:13:13;;;;;;;9.40;6.10;;;9.10;69.60;;;;;;5009788;28;20874;-85
2021/04/28 00:15:46;;;;;;;5.70;5.20;;;9.10;70.70;;;;;;5022460;28;20424;-84
2021/04/28 00:18:14;;;;;;;7.83;6.30;;;9.00;71.40;;;;;;5033246;28;20923;-84
2021/04/28 00:20:45;;;;;;;6.23;5.63;;;9.00;71.80;;;;;;5008325;28;20462;-84
2021/04/28 00:23:18;;;;;;;7.60;5.73;;;8.90;72.30;;;;;;5030843;28;20835;-85
2021/04/28 00:25:51;;;;;;;6.70;5.90;;;8.90;72.90;;;;;;5014182;28;20439;-84
2021/04/28 00:28:17;;;;;;;8.83;6.10;;;8.90;73.70;;;;;;5017735;28;20773;-84
2021/04/28 00:30:43;;;;;;;6.10;5.50;;;8.80;74.70;;;;;;4971670;28;20471;-84
2021/04/28 00:33:15;;;;;;;6.00;5.40;;;8.80;76.10;;;;;;4998973;28;20468;-84
2021/04/28 00:35:46;;;;;;;6.40;5.33;;;8.70;76.10;;;;;;4997892;28;20769;-84
2021/04/28 00:38:16;;;;;;;6.47;5.87;;;8.70;77.90;;;;;;4998066;28;20440;-85
2021/04/28 00:40:47;;;;;;;8.60;6.43;;;8.70;79.10;;;;;;5009856;28;20454;-84
2021/04/28 00:43:18;;;;;;;6.30;5.70;;;8.60;79.90;;;;;;5010893;28;20564;-85
2021/04/28 00:45:52;;;;;;;6.50;5.40;;;8.60;80.90;;;;;;5012740;28;20463;-84
2021/04/28 00:48:18;;;;;;;11.30;6.60;;;8.60;82.00;;;;;;5018459;28;20424;-85
2021/04/28 00:50:51;;;;;;;7.13;5.80;;;8.50;82.50;;;;;;5016772;28;20506;-84
2021/04/28 00:53:22;;;;;;;7.13;6.43;;;8.50;82.60;;;;;;4998283;28;20468;-84
2021/04/28 00:55:49;;;;;;;7.30;5.70;;;8.50;84.10;;;;;;5012949;28;20406;-84
2021/04/28 00:58:19;;;;;;;8.53;6.37;;;8.40;84.60;;;;;;5018781;28;20510;-84
2021/04/28 01:00:48;;;;;;;8.33;6.27;;;8.30;85.40;;;;;;5021227;28;20429;-85
2021/04/28 01:03:27;;;;;;;7.70;6.90;;;8.40;86.50;;;;;;5018393;28;20435;-84
2021/04/28 01:06:00;;;;;;;8.40;6.87;;;8.30;86.60;;;;;;4999580;28;20786;-85
2021/04/28 01:08:28;;;;;;;6.80;6.13;;;8.20;85.80;;;;;;5015168;28;20431;-84
2021/04/28 01:10:58;;;;;;;7.47;6.00;;;8.20;86.10;;;;;;5019989;28;20499;-84
2021/04/28 01:13:27;;;;;;;7.57;6.77;;;8.10;88.50;;;;;;4996047;28;20503;-84
2021/04/28 01:15:58;;;;;;;7.60;6.30;;;8.10;88.00;;;;;;4996621;28;20468;-84
2021/04/28 01:18:29;;;;;;;6.90;6.03;;;8.00;89.60;;;;;;5012315;28;20409;-85
2021/04/28 01:20:59;;;;;;;8.80;7.13;;;8.00;90.00;;;;;;4996189;28;20467;-84
2021/04/28 01:23:27;;;;;;;7.90;6.77;;;8.00;89.50;;;;;;5031196;28;20893;-84
2021/04/28 01:26:02;;;;;;;7.63;6.60;;;8.00;90.20;;;;;;5014475;28;20476;-85
2021/04/28 01:28:31;;;;;;;7.07;6.40;;;7.90;90.00;;;;;;4998877;28;20463;-84
2021/04/28 01:31:05;;;;;;;7.67;6.63;;;7.90;90.70;;;;;;5031261;28;20490;-84
2021/04/28 01:33:41;;;;;;;7.67;6.70;;;7.90;90.50;;;;;;5015621;28;20428;-84
2021/04/28 01:36:24;;;;;;;6.70;6.00;;;7.80;90.90;;;;;;5014573;28;20432;-84
2021/04/28 01:38:58;;;;;;;7.00;6.30;;;7.80;91.30;;;;;;5011902;28;20412;-84
2021/04/28 01:41:29;;;;;;;7.57;5.70;;;7.70;91.20;;;;;;5011760;28;20419;-84
2021/04/28 01:44:01;;;;;;;11.90;6.80;;;7.70;91.80;;;;;;5013016;28;20773;-84
2021/04/28 01:46:30;;;;;;;7.50;6.70;;;7.70;91.40;;;;;;5013868;28;20408;-84
2021/04/28 01:49:04;;;;;;;7.33;6.37;;;7.60;91.30;;;;;;5015290;28;20518;-84
2021/04/28 01:51:38;;;;;;;10.73;7.00;;;7.50;91.60;;;;;;5014861;28;20771;-84
2021/04/28 01:54:15;;;;;;;8.70;6.87;;;7.60;92.10;;;;;;5031809;28;20797;-84
2021/04/28 01:56:53;;;;;;;8.63;6.03;;;7.50;92.30;;;;;;4996607;28;20482;-84
2021/04/28 01:59:38;;;;;;;7.00;5.90;;;7.50;92.30;;;;;;4996640;28;20956;-84
2021/04/28 02:02:24;;;;;;;8.00;6.70;;;7.40;92.30;;;;;;5002924;28;20435;-84
2021/04/28 02:04:53;;;;;;;8.60;6.30;;;7.40;92.30;;;;;;4979474;28;20790;-84
2021/04/28 02:07:24;;;;;;;7.83;5.80;;;7.40;92.70;;;;;;5020761;28;20837;-84
2021/04/28 02:09:55;;;;;;;10.07;6.93;;;7.40;92.90;;;;;;5014924;28;20761;-84
2021/04/28 02:12:25;;;;;;;7.23;6.50;;;7.40;92.70;;;;;;5029691;28;20454;-84
2021/04/28 02:15:00;;;;;;;9.47;6.70;;;7.40;92.50;;;;;;5012672;28;20413;-84
2021/04/28 02:17:31;;;;;;;8.50;7.53;;;7.40;92.80;;;;;;4978585;28;20495;-84
2021/04/28 02:20:09;;;;;;;10.87;6.53;;;7.30;93.00;;;;;;4997031;28;20706;-84
2021/04/28 02:22:46;;;;;;;9.30;7.00;;;7.30;93.20;;;;;;4994775;28;20474;-85
2021/04/28 02:25:17;;;;;;;10.10;8.03;;;7.30;93.70;;;;;;5029391;28;20486;-84
2021/04/28 02:27:53;;;;;;;8.37;7.20;;;7.20;94.50;;;;;;4999109;28;20415;-84
2021/04/28 02:30:27;;;;;;;8.67;7.10;;;7.20;94.20;;;;;;5014447;28;20447;-84
2021/04/28 02:32:59;;;;;;;10.23;7.87;;;7.20;94.30;;;;;;5014610;28;20539;-84
2021/04/28 02:35:47;;;;;;;9.37;6.97;;;7.20;94.20;;;;;;4996157;28;20449;-83
2021/04/28 02:38:41;;;;;;;8.10;6.93;;;7.20;94.80;;;;;;5014139;28;20434;-85
2021/04/28 02:41:15;;;;;;;8.63;6.73;;;7.10;94.80;;;;;;5013906;28;20489;-84
2021/04/28 02:43:47;;;;;;;8.73;7.20;;;7.10;95.20;;;;;;4997547;28;20512;-84
2021/04/28 02:46:23;;;;;;;8.10;6.83;;;7.00;95.20;;;;;;5030496;28;20480;-84
2021/04/28 02:48:59;;;;;;;13.83;8.03;;;7.00;95.40;;;;;;5024256;28;20438;-84
2021/04/28 02:51:39;;;;;;;9.00;7.40;;;7.00;94.90;;;;;;5003578;28;20482;-85
2021/04/28 02:54:36;;;;;;;8.13;7.33;;;6.90;95.30;;;;;;4981972;28;20907;-84
2021/04/28 02:57:06;;;;;;;7.20;6.47;;;6.80;95.70;;;;;;5011389;28;20755;-84
2021/04/28 02:59:35;;;;;;;8.30;6.40;;;6.80;96.00;;;;;;5014894;28;20422;-84
2021/04/28 03:02:07;;;;;;;8.30;7.50;;;6.80;96.30;;;;;;5028730;28;20469;-84
2021/04/28 03:04:39;;;;;;;10.40;7.53;;;6.80;96.50;;;;;;5015376;28;20485;-84
2021/04/28 03:07:22;;;;;;;8.10;7.40;;;6.70;96.70;;;;;;5024628;28;20842;-84
2021/04/28 03:09:50;;;;;;;14.57;7.57;;;6.70;96.70;;;;;;5016822;28;20438;-85
2021/04/28 03:12:19;;;;;;;8.80;7.57;;;6.60;96.90;;;;;;5015847;28;20508;-85
2021/04/28 03:14:57;;;;;;;9.43;7.67;;;6.60;97.10;;;;;;5031851;28;20867;-84
2021/04/28 03:17:27;;;;;;;9.17;8.17;;;6.50;97.40;;;;;;4999866;28;20426;-85
2021/04/28 03:19:59;;;;;;;8.73;7.77;;;6.50;97.90;;;;;;4975601;28;20536;-85
2021/04/28 03:22:36;;;;;;;11.13;8.60;;;6.50;98.30;;;;;;5016085;28;20466;-85
2021/04/28 03:25:10;;;;;;;9.07;8.00;;;6.50;98.40;;;;;;5015410;28;20502;-84
2021/04/28 03:27:36;;;;;;;11.60;8.55;;;6.50;98.40;;;;;;5015249;28;20411;-84
2021/04/28 03:30:09;;;;;;;9.80;7.20;;;6.40;98.90;;;;;;5014341;28;20240;-84
2021/04/28 03:32:39;;;;;;;10.88;8.57;;;6.40;99.00;;;;;;5013686;28;20615;-84
2021/04/28 03:35:30;;;;;;;10.30;8.40;;;6.30;99.00;;;;;;5030311;28;20186;-84
2021/04/28 03:38:36;;;;;;;13.17;8.20;;;6.30;99.10;;;;;;4997457;28;20429;-84
2021/04/28 03:41:08;;;;;;;10.03;8.07;;;6.40;99.40;;;;;;4994004;28;20467;-84
2021/04/28 03:43:35;;;;;;;11.33;8.07;;;6.30;99.40;;;;;;4993752;28;20841;-84
2021/04/28 03:46:06;;;;;;;13.60;8.33;;;6.40;99.60;;;;;;4977633;28;20936;-83
2021/04/28 03:48:39;;;;;;;9.93;8.60;;;6.40;99.40;;;;;;4997576;28;20779;-84
2021/04/28 03:51:06;;;;;;;8.67;7.70;;;6.30;99.50;;;;;;5009530;28;20429;-83
2021/04/28 03:53:40;;;;;;;8.90;8.00;;;6.30;99.20;;;;;;5001756;28;20438;-84
2021/04/28 03:56:10;;;;;;;10.87;9.50;;;6.20;99.60;;;;;;5017288;28;20398;-84
2021/04/28 03:58:37;;;;;;;9.57;8.57;;;6.30;99.90;;;;;;5033000;28;20442;-84
2021/04/28 04:01:12;;;;;;;9.43;8.47;;;6.20;99.60;;;;;;5010391;28;20909;-84
2021/04/28 04:03:41;;;;;;;13.07;9.00;;;6.20;99.90;;;;;;4997712;28;20787;-84
2021/04/28 04:06:25;;;;;;;9.65;8.65;;;6.20;99.90;;;;;;4998204;28;20198;-84
2021/04/28 04:09:15;;;;;;;10.03;8.63;;;6.10;99.90;;;;;;5011137;28;20171;-84
2021/04/28 04:11:52;;;;;;;10.57;8.80;;;6.10;99.90;;;;;;4997853;28;20463;-86
2021/04/28 04:14:23;;;;;;;9.60;8.50;;;6.00;99.90;;;;;;5008241;28;20732;-84
2021/04/28 04:16:56;;;;;;;8.43;7.57;;;6.00;99.90;;;;;;5017236;28;20426;-85
2021/04/28 04:19:25;;;;;;;9.75;8.18;;;6.00;99.90;;;;;;5006815;28;20432;-85
2021/04/28 04:22:13;;;;;;;9.38;8.18;;;5.90;99.90;;;;;;5013718;28;20707;-86
2021/04/28 04:25:09;;;;;;;9.05;8.15;;;5.90;99.90;;;;;;5003131;28;20662;-86
2021/04/28 04:27:36;;;;;;;18.73;8.98;;;5.90;99.90;;;;;;5000528;28;20187;-85
2021/04/28 04:30:11;;;;;;;11.15;8.57;;;5.90;99.90;;;;;;4998429;28;20312;-86
2021/04/28 04:32:55;;;;;;;9.77;8.77;;;6.00;99.90;;;;;;5011352;28;20337;-86
2021/04/28 04:35:53;;;;;;;10.07;8.52;;;5.90;99.90;;;;;;5008373;28;20342;-85
2021/04/28 04:38:47;;;;;;;16.70;9.45;;;5.90;99.90;;;;;;5001615;28;20191;-85
2021/04/28 04:41:36;;;;;;;12.95;8.90;;;5.90;99.90;;;;;;5010448;28;20194;-85
2021/04/28 04:44:12;;;;;;;9.90;8.40;;;5.90;99.90;;;;;;5031491;28;20269;-86
2021/04/28 04:47:00;;;;;;;12.53;8.97;;;5.90;99.90;;;;;;5016833;28;20213;-86
2021/04/28 04:49:32;;;;;;;10.18;8.43;;;5.90;99.90;;;;;;5031950;28;20433;-85
2021/04/28 04:52:02;;;;;;;11.30;8.40;;;6.00;99.90;;;;;;5032190;28;20607;-86
2021/04/28 04:54:31;;;;;;;12.50;8.70;;;6.00;99.90;;;;;;5016196;28;20520;-86
2021/04/28 04:57:03;;;;;;;10.30;8.32;;;6.10;99.90;;;;;;5009912;28;20432;-86
2021/04/28 04:59:29;;;;;;;15.80;8.23;;;6.10;99.90;;;;;;4997223;28;20192;-86
2021/04/28 05:02:03;;;;;;;10.45;8.52;;;6.20;99.90;;;;;;5011378;28;20529;-86
2021/04/28 05:04:29;;;;;;;12.33;8.80;;;6.20;99.90;;;;;;5012744;28;20327;-86
2021/04/28 05:06:57;;;;;;;12.47;9.87;;;6.20;99.90;;;;;;5002755;28;20432;-85
2021/04/28 05:09:23;;;;;;;13.50;9.93;;;6.30;99.90;;;;;;5015338;28;20918;-84
2021/04/28 05:11:54;;;;;;;10.75;9.65;;;6.40;99.90;;;;;;4999616;28;20484;-85
2021/04/28 05:14:20;;;;;;;11.13;8.47;;;6.40;99.90;;;;;;5014282;28;20708;-85
2021/04/28 05:16:50;;;;;;;12.40;9.37;;;6.40;99.90;;;;;;5001113;28;20810;-85
2021/04/28 05:19:23;;;;;;;10.30;9.30;;;6.50;99.90;;;;;;5026249;28;20421;-85
2021/04/28 05:21:49;;;;;;;9.83;8.50;;;6.50;99.90;;;;;;5000191;28;20494;-85
2021/04/28 05:24:18;;;;;;;11.07;9.95;;;6.60;99.90;;;;;;4980368;28;20493;-85
2021/04/28 05:27:26;;;;;;;13.17;9.77;;;6.70;99.90;;;;;;4992173;28;20189;-85
2021/04/28 05:29:55;;;;;;;13.43;9.10;;;6.80;99.90;;;;;;5017746;28;20430;-85
2021/04/28 05:32:23;;;;;;;12.03;9.70;;;6.90;99.90;;;;;;5032324;28;20454;-85
2021/04/28 05:34:53;;;;;;;12.17;10.57;;;7.00;99.90;;;;;;4999776;28;20446;-85
2021/04/28 05:37:24;;;;;;;10.37;9.20;;;7.10;99.90;;;;;;5015055;28;20758;-86
2021/04/28 05:39:55;;;;;;;13.63;9.40;;;7.20;99.90;;;;;;5015025;28;20458;-85
2021/04/28 05:42:23;;;;;;;14.93;10.07;;;7.30;99.90;;;;;;5025668;28;20442;-86
2021/04/28 05:44:54;;;;;;;15.83;10.03;;;7.40;99.90;;;;;;5008035;28;20443;-84
2021/04/28 05:47:25;;;;;;;12.50;9.67;;;7.60;99.30;;;;;;4995314;28;20573;-84
2021/04/28 05:49:53;;;;;;;13.67;10.73;;;7.70;99.90;;;;;;4978415;28;20461;-84
2021/04/28 05:52:22;;;;;;;16.97;11.50;;;7.80;99.90;;;;;;4999787;28;20506;-84
2021/04/28 05:54:59;;;;;;;15.47;9.83;;;7.90;98.90;;;;;;5028530;28;20415;-83
2021/04/28 05:57:29;;;;;;;13.23;10.00;;;8.10;98.30;;;;;;5004755;28;20961;-83
2021/04/28 05:59:57;;;;;;;12.30;10.23;;;8.20;97.30;;;;;;5016160;28;20562;-84
2021/04/28 06:02:23;;;;;;;12.93;9.20;;;8.40;97.20;;;;;;4994506;28;20832;-83
2021/04/28 06:04:51;;;;;;;13.57;11.27;;;8.50;96.70;;;;;;4993756;28;20429;-83
2021/04/28 06:07:19;;;;;;;11.23;9.83;;;8.70;96.30;;;;;;4993751;28;20909;-83
2021/04/28 06:09:47;;;;;;;11.23;9.73;;;8.80;95.70;;;;;;4982974;28;20560;-83
2021/04/28 06:12:20;;;;;;;15.67;10.90;;;9.00;95.30;;;;;;4993064;28;20441;-83
2021/04/28 06:14:53;;;;;;;10.93;9.17;;;9.20;94.90;;;;;;4998748;28;20436;-83
2021/04/28 06:17:21;;;;;;;11.13;9.33;;;9.40;94.20;;;;;;5014098;28;20823;-83
2021/04/28 06:19:47;;;;;;;15.37;9.10;;;9.60;93.90;;;;;;5012848;28;20578;-83
2021/04/28 06:22:13;;;;;;;10.70;9.77;;;9.80;93.50;;;;;;5010496;28;20487;-83
2021/04/28 06:24:42;;;;;;;12.20;9.40;;;10.00;92.80;;;;;;4995517;28;20437;-82
2021/04/28 06:27:08;;;;;;;11.33;9.67;;;10.20;92.50;;;;;;4994063;28;20853;-82
2021/04/28 06:29:38;;;;;;;13.70;10.27;;;10.30;90.70;;;;;;4993406;28;20440;-82
2021/04/28 06:32:09;;;;;;;15.30;9.40;;;10.50;90.50;;;;;;4999853;28;20473;-82
2021/04/28 06:34:41;;;;;;;10.63;9.57;;;10.70;89.80;;;;;;5014017;28;20432;-82
2021/04/28 06:37:10;;;;;;;10.63;9.57;;;10.90;89.90;;;;;;5006228;28;20427;-82
2021/04/28 06:39:36;;;;;;;9.83;8.73;;;11.10;90.20;;;;;;5008440;28;20437;-82
2021/04/28 06:42:02;;;;;;;12.23;10.00;;;11.30;89.10;;;;;;5008942;28;20451;-82
2021/04/28 06:44:30;;;;;;;10.90;8.93;;;11.50;86.70;;;;;;4978450;28;20762;-82
2021/04/28 06:46:56;;;;;;;11.53;9.77;;;11.60;85.70;;;;;;5008278;28;20435;-83
2021/04/28 06:49:23;;;;;;;11.40;10.13;;;11.80;86.10;;;;;;5014747;28;20441;-83
2021/04/28 06:51:51;;;;;;;12.80;10.63;;;11.90;86.20;;;;;;5002093;28;20471;-83
2021/04/28 06:54:19;;;;;;;11.83;9.83;;;12.00;85.30;;;;;;5013264;28;20473;-83
2021/04/28 06:56:47;;;;;;;11.50;10.50;;;12.10;84.60;;;;;;5013564;28;20914;-84
2021/04/28 06:59:19;;;;;;;12.17;10.87;;;12.30;84.70;;;;;;5014648;28;20494;-84
2021/04/28 07:01:51;;;;;;;13.73;9.70;;;12.50;83.30;;;;;;5010853;28;20430;-84
2021/04/28 07:04:21;;;;;;;11.00;9.77;;;12.70;83.50;;;;;;5020620;28;20786;-84
2021/04/28 07:06:50;;;;;;;15.13;9.87;;;12.80;80.40;;;;;;5001199;28;20263;-83
2021/04/28 07:09:17;;;;;;;11.33;10.20;;;12.90;79.00;;;;;;5010530;28;20511;-83
2021/04/28 07:11:47;;;;;;;13.07;9.83;;;12.90;78.80;;;;;;4995993;28;20472;-83
2021/04/28 07:14:13;;;;;;;12.23;9.47;;;13.00;78.40;;;;;;4994979;28;20426;-84
2021/04/28 07:16:39;;;;;;;11.93;10.83;;;13.00;78.30;;;;;;5015943;28;20788;-84
2021/04/28 07:19:25;;;;;;;10.20;9.20;;;13.10;78.90;;;;;;4994825;28;20467;-83
2021/04/28 07:21:51;;;;;;;10.90;9.80;;;13.30;77.80;;;;;;5017529;28;20476;-84
2021/04/28 07:24:17;;;;;;;12.93;10.63;;;13.50;76.50;;;;;;4994457;28;20484;-84
2021/04/28 07:26:48;;;;;;;14.03;9.90;;;13.70;75.10;;;;;;4995626;28;20494;-83
2021/04/28 07:29:17;;;;;;;11.17;10.07;;;13.70;73.50;;;;;;5010540;28;20447;-84
2021/04/28 07:31:45;;;;;;;12.57;10.40;;;13.90;72.70;;;;;;4995512;28;20496;-84
2021/04/28 07:34:11;;;;;;;14.27;10.30;;;14.00;73.30;;;;;;5002208;28;20502;-84
2021/04/28 07:36:40;;;;;;;11.73;10.50;;;14.10;72.00;;;;;;4995680;28;20433;-83
2021/04/28 07:39:07;;;;;;;10.07;9.00;;;14.20;71.20;;;;;;5001200;28;20452;-84
2021/04/28 07:41:34;;;;;;;15.30;10.80;;;14.30;68.60;;;;;;4996669;28;20445;-84
2021/04/28 07:44:05;;;;;;;12.90;10.10;;;14.30;68.40;;;;;;5013498;28;20435;-83
2021/04/28 07:46:35;;;;;;;9.97;9.07;;;14.30;66.80;;;;;;5016896;28;20442;-86
2021/04/28 07:49:04;;;;;;;10.47;8.87;;;14.30;65.80;;;;;;5020742;28;20888;-84
2021/04/28 07:51:32;;;;;;;12.33;9.90;;;14.30;66.90;;;;;;5016681;28;20465;-83
2021/04/28 07:54:00;;;;;;;11.07;10.10;;;14.20;66.00;;;;;;4999648;28;20528;-84
2021/04/28 07:56:26;;;;;;;12.03;9.97;;;14.20;66.30;;;;;;4993692;28;20419;-83
2021/04/28 07:58:55;;;;;;;11.53;10.33;;;14.30;67.30;;;;;;4995163;28;20798;-83
2021/04/28 08:01:24;;;;;;;11.00;9.90;;;14.40;65.10;;;;;;5006909;28;20424;-84
2021/04/28 08:03:52;;;;;;;12.03;10.83;;;14.40;66.30;;;;;;4996426;28;20428;-84
2021/04/28 08:06:18;;;;;;;11.50;9.73;;;14.50;65.00;;;;;;4995871;28;20433;-83
2021/04/28 08:08:45;;;;;;;10.87;9.73;;;14.50;64.60;;;;;;5012269;28;20522;-83
2021/04/28 08:11:10;;;;;;;13.47;10.47;;;14.60;64.80;;;;;;4995514;28;20444;-84
2021/04/28 08:13:42;;;;;;;9.67;8.77;;;14.70;63.20;;;;;;4996556;28;20548;-85
2021/04/28 08:16:10;;;;;;;11.60;10.53;;;14.90;64.00;;;;;;4997142;28;20439;-84
2021/04/28 08:18:39;;;;;;;11.77;9.73;;;15.00;64.30;;;;;;5012305;28;20417;-84
2021/04/28 08:21:05;;;;;;;11.33;10.00;;;15.00;62.40;;;;;;4996515;28;20468;-83
2021/04/28 08:23:34;;;;;;;10.77;9.30;;;15.00;62.60;;;;;;5011514;28;20432;-84
2021/04/28 08:26:04;;;;;;;12.60;9.57;;;15.00;62.00;;;;;;5010766;28;20481;-84
2021/04/28 08:28:30;;;;;;;14.33;9.30;;;15.00;62.90;;;;;;4971715;28;20463;-84
2021/04/28 08:31:01;;;;;;;11.63;10.53;;;15.10;63.50;;;;;;4961369;28;20577;-84
2021/04/28 08:33:27;;;;;;;14.60;10.93;;;15.10;62.70;;;;;;5011942;28;20471;-84
2021/04/28 08:35:56;;;;;;;12.00;9.80;;;15.30;63.00;;;;;;5013980;28;20443;-84
2021/04/28 08:38:22;;;;;;;12.00;10.80;;;15.40;61.20;;;;;;4980496;28;20449;-84
2021/04/28 08:40:48;;;;;;;12.67;10.13;;;15.60;61.10;;;;;;4974520;28;20543;-85
2021/04/28 08:43:21;;;;;;;11.63;10.40;;;15.70;59.10;;;;;;5011238;28;20456;-85
2021/04/28 08:45:51;;;;;;;12.17;9.90;;;15.90;58.70;;;;;;4984200;28;20436;-83
2021/04/28 08:48:20;;;;;;;12.90;10.53;;;16.10;61.50;;;;;;4996504;28;20479;-84
2021/04/28 08:50:49;;;;;;;14.07;11.80;;;16.20;59.40;;;;;;4980509;28;20437;-84
2021/04/28 08:53:16;;;;;;;10.40;9.40;;;16.40;57.60;;;;;;4980916;28;20488;-84
2021/04/28 08:55:50;;;;;;;15.43;11.07;;;16.60;57.90;;;;;;5000876;28;20439;-84
2021/04/28 08:58:20;;;;;;;14.17;10.63;;;16.90;56.60;;;;;;5016169;28;20455;-84
2021/04/28 09:00:48;;;;;;;11.50;10.30;;;17.10;55.70;;;;;;4984761;28;20871;-84
2021/04/28 09:03:17;;;;;;;13.00;10.90;;;17.30;55.80;;;;;;4983593;28;20433;-84
2021/04/28 09:05:44;;;;;;;12.10;10.80;;;17.40;56.20;;;;;;5016004;28;20423;-84
2021/04/28 09:08:11;;;;;;;12.57;11.23;;;17.70;57.00;;;;;;4983823;28;20417;-84
2021/04/28 09:10:44;;;;;;;11.97;10.70;;;17.90;53.00;;;;;;4999142;28;20465;-84
2021/04/28 09:13:18;;;;;;;11.60;10.40;;;18.00;52.30;;;;;;4984038;28;20470;-84
2021/04/28 09:15:49;;;;;;;12.77;10.33;;;18.20;53.60;;;;;;4984331;28;20496;-84
2021/04/28 09:18:34;;;;;;;13.03;10.40;;;18.20;53.60;;;;;;4983807;28;20444;-85
2021/04/28 09:21:39;;;;;;;11.33;10.20;;;18.30;53.60;;;;;;5001722;28;20474;-85
2021/04/28 09:24:31;;;;;;;11.90;10.67;;;18.40;52.80;;;;;;5001863;28;20446;-85
2021/04/28 09:27:42;;;;;;;14.30;10.77;;;18.70;51.10;;;;;;4955924;29;20430;-84
2021/04/28 09:30:41;;;;;;;12.73;11.53;;;18.70;50.40;;;;;;4920401;29;20760;-85
2021/04/28 09:33:07;;;;;;;11.90;10.73;;;19.00;50.30;;;;;;4962596;28;20481;-85
2021/04/28 09:35:33;;;;;;;12.70;10.77;;;19.20;51.10;;;;;;5015631;28;20446;-85
2021/04/28 09:38:04;;;;;;;12.10;11.00;;;19.40;51.10;;;;;;4983350;28;20434;-85
2021/04/28 09:40:46;;;;;;;16.37;11.70;;;19.50;48.30;;;;;;4999127;28;20451;-85
2021/04/28 09:43:13;;;;;;;16.63;10.47;;;19.80;49.60;;;;;;4999108;28;20429;-87
2021/04/28 09:49:54;;;;;;;13.53;11.93;;;20.20;47.50;;;;;;5026264;22;20479;31
2021/04/28 09:52:45;;;;;;;13.13;11.83;;;20.30;47.10;;;;;;5031949;28;20832;-76
2021/04/28 09:55:15;;;;;;;21.73;11.93;;;20.20;47.10;;;;;;5033267;28;20465;-75
2021/04/28 09:57:47;;;;;;;13.37;11.63;;;20.30;46.60;;;;;;5034144;28;20492;-76
2021/04/28 10:00:14;;;;;;;14.40;11.73;;;20.50;46.40;;;;;;5032689;28;20965;-76
2021/04/28 10:02:41;;;;;;;13.40;12.20;;;20.70;46.50;;;;;;5032211;28;20856;-76
2021/04/28 10:05:15;;;;;;;13.63;12.43;;;21.00;46.00;;;;;;5032354;28;20445;-76
2021/04/28 10:07:45;;;;;;;14.50;11.50;;;21.20;43.20;;;;;;5031314;28;20920;-75
2021/04/28 10:10:15;;;;;;;12.17;10.10;;;21.50;44.30;;;;;;5032560;28;20491;-75
2021/04/28 10:12:55;;;;;;;12.77;11.13;;;21.70;43.00;;;;;;5017929;28;20870;-76
2021/04/28 10:15:21;;;;;;;14.07;12.67;;;21.80;41.40;;;;;;5015837;28;20498;-76
2021/04/28 10:17:49;;;;;;;12.70;11.37;;;21.80;40.40;;;;;;5033305;28;20425;-76
2021/04/28 10:20:19;;;;;;;13.60;12.37;;;22.10;40.10;;;;;;4995174;28;20504;-75
2021/04/28 10:22:46;;;;;;;12.60;11.30;;;22.10;39.00;;;;;;4996094;28;20457;-75
2021/04/28 10:25:14;;;;;;;13.00;10.73;;;22.20;39.80;;;;;;5012182;28;20497;-76
2021/04/28 10:27:44;;;;;;;13.23;11.83;;;22.40;39.40;;;;;;5012318;28;20428;-76
2021/04/28 10:30:16;;;;;;;13.10;11.90;;;22.60;40.00;;;;;;4995851;28;20514;-76
2021/04/28 10:32:43;;;;;;;11.60;10.40;;;22.80;39.00;;;;;;5012771;28;20510;-73
2021/04/28 10:35:13;;;;;;;14.90;12.13;;;23.10;38.20;;;;;;5013608;28;20964;-73
2021/04/28 10:37:41;;;;;;;13.10;11.80;;;23.20;37.00;;;;;;4995896;28;20839;-73
2021/04/28 10:40:13;;;;;;;15.53;12.63;;;23.20;37.10;;;;;;4995929;28;20439;-76
2021/04/28 10:42:40;;;;;;;14.77;12.60;;;23.20;37.20;;;;;;5012157;28;20923;-75
2021/04/28 10:45:08;;;;;;;12.00;10.90;;;23.30;36.70;;;;;;4995644;28;20918;-75
2021/04/28 10:47:40;;;;;;;12.47;11.33;;;23.20;36.60;;;;;;5012049;28;20427;-76
2021/04/28 10:50:34;;;;;;;16.10;12.37;;;23.20;35.60;;;;;;5013182;28;20464;-76
2021/04/28 10:53:03;;;;;;;12.40;11.30;;;23.40;37.50;;;;;;5029738;28;20467;-76
2021/04/28 10:55:50;;;;;;;11.63;10.40;;;23.60;36.90;;;;;;5031302;28;20450;-76
2021/04/28 10:58:26;;;;;;;12.83;11.03;;;23.60;35.90;;;;;;5031219;28;20431;-75
2021/04/28 11:00:58;;;;;;;12.23;10.97;;;23.70;36.00;;;;;;5031124;28;20426;-76
2021/04/28 11:03:48;;;;;;;14.10;10.80;;;23.70;36.10;;;;;;5031621;28;20430;-76
2021/04/28 11:06:35;;;;;;;11.83;10.70;;;23.80;34.10;;;;;;5014677;28;20439;-76
2021/04/28 11:09:06;;;;;;;12.00;10.90;;;23.90;33.70;;;;;;5031172;28;20459;-76
2021/04/28 11:11:37;;;;;;;12.43;10.70;;;24.00;34.80;;;;;;5030209;28;20446;-74
2021/04/28 11:14:22;;;;;;;12.43;11.23;;;24.00;33.50;;;;;;5031123;28;20509;-73
2021/04/28 11:16:52;;;;;;;10.30;9.23;;;23.70;31.40;;;;;;5032387;28;20434;-73
2021/04/28 11:19:21;;;;;;;10.10;9.20;;;23.60;31.50;;;;;;5032601;28;20846;-73
2021/04/28 11:22:23;;;;;;;12.20;11.13;;;23.80;32.50;;;;;;5031491;28;20908;-73
2021/04/28 11:25:10;;;;;;;13.90;9.13;;;24.30;32.40;;;;;;5029447;28;20863;-75
2021/04/28 11:27:53;;;;;;;11.07;9.93;;;24.30;31.40;;;;;;5032533;28;20848;-76
2021/04/28 11:30:20;;;;;;;9.00;8.30;;;24.20;32.10;;;;;;5012556;28;20494;-76
2021/04/28 11:33:09;;;;;;;10.53;9.53;;;24.10;31.60;;;;;;5010960;28;20460;-76
2021/04/28 11:35:44;;;;;;;11.03;10.10;;;24.20;31.90;;;;;;5008037;28;20448;-76
2021/04/28 11:38:16;;;;;;;11.50;10.47;;;24.50;32.00;;;;;;5011114;28;20420;-76
2021/04/28 11:41:00;;;;;;;13.43;12.23;;;24.60;30.80;;;;;;5011159;28;20804;-76
2021/04/28 11:43:30;;;;;;;14.60;13.10;;;24.90;32.20;;;;;;5010917;28;20419;-76
2021/04/28 11:46:02;;;;;;;10.70;9.70;;;25.20;31.20;;;;;;4994992;28;20428;-76
2021/04/28 11:48:30;;;;;;;11.60;10.17;;;25.10;29.00;;;;;;5011223;28;20420;-76
2021/04/28 11:51:02;;;;;;;10.30;9.50;;;24.90;29.30;;;;;;5012419;28;20543;-76
2021/04/28 11:53:30;;;;;;;10.13;9.33;;;25.20;29.70;;;;;;5011113;28;20843;-76
2021/04/28 11:55:57;;;;;;;9.23;8.57;;;25.40;28.80;;;;;;5011651;28;20439;-76
2021/04/28 11:58:28;;;;;;;9.90;9.10;;;25.40;28.70;;;;;;5030850;28;20435;-76
2021/04/28 12:01:07;;;;;;;10.17;9.30;;;25.50;29.50;;;;;;5030804;28;21008;-75
2021/04/28 12:04:00;;;;;;;10.33;9.10;;;25.50;27.10;;;;;;5014355;28;20442;-75
2021/04/28 12:06:34;;;;;;;9.40;8.60;;;25.60;27.70;;;;;;5030570;28;20484;-76
2021/04/28 12:09:35;;;;;;;11.10;8.63;;;25.50;27.90;;;;;;5032066;28;20890;-76
2021/04/28 12:12:14;;;;;;;10.37;9.47;;;25.70;28.30;;;;;;5034940;28;20474;-76
2021/04/28 12:15:06;;;;;;;9.80;9.00;;;26.10;27.50;;;;;;5035563;28;20449;-76
2021/04/28 12:17:41;;;;;;;8.73;7.40;;;26.30;29.20;;;;;;5018035;28;20806;-75
2021/04/28 12:20:22;;;;;;;9.53;8.63;;;26.30;26.40;;;;;;5017762;28;20797;-76
2021/04/28 12:22:48;;;;;;;9.40;8.60;;;26.10;26.20;;;;;;5017919;28;20448;-76
2021/04/28 12:25:17;;;;;;;8.03;7.33;;;26.00;25.60;;;;;;5033496;28;20474;-76
2021/04/28 12:27:47;;;;;;;9.83;8.83;;;26.00;26.00;;;;;;5034418;28;20438;-76
2021/04/28 12:30:27;;;;;;;10.47;9.57;;;26.00;24.90;;;;;;5034314;28;20868;-76
2021/04/28 12:32:57;;;;;;;10.23;8.57;;;26.20;26.30;;;;;;5035155;28;20474;-76
2021/04/28 12:35:32;;;;;;;8.33;7.63;;;26.30;26.80;;;;;;5035258;28;20886;-76
2021/04/28 12:38:13;;;;;;;11.47;10.47;;;26.50;26.70;;;;;;5035258;28;20419;-76
2021/04/28 12:40:55;;;;;;;8.20;7.57;;;26.50;25.60;;;;;;5013577;28;20530;-76
2021/04/28 12:43:39;;;;;;;8.90;8.20;;;26.60;24.90;;;;;;5015393;28;20437;-76
2021/04/28 12:46:09;;;;;;;10.67;9.63;;;26.80;25.50;;;;;;5014157;28;20416;-75
2021/04/28 12:49:00;;;;;;;8.83;8.20;;;26.80;24.00;;;;;;5015207;28;20945;-76
2021/04/28 12:51:27;;;;;;;8.47;7.77;;;27.00;25.00;;;;;;5014061;28;20455;-76
2021/04/28 12:53:56;;;;;;;9.57;8.57;;;27.00;25.30;;;;;;5027703;28;20470;-76
2021/04/28 12:56:43;;;;;;;9.30;8.60;;;27.10;25.20;;;;;;5003326;28;20978;-76
2021/04/28 12:59:18;;;;;;;9.60;8.90;;;27.00;26.10;;;;;;5017476;28;20419;-76
2021/04/28 13:02:07;;;;;;;9.50;8.80;;;26.90;24.40;;;;;;5033808;28;20427;-76
2021/04/28 13:04:46;;;;;;;8.40;7.70;;;26.60;23.80;;;;;;5033521;28;20929;-76
2021/04/28 13:07:26;;;;;;;10.87;9.87;;;26.90;25.50;;;;;;5019323;28;20514;-76
2021/04/28 13:10:12;;;;;;;10.27;9.37;;;26.70;24.30;;;;;;5017072;28;20422;-76
2021/04/28 13:12:44;;;;;;;11.13;9.37;;;26.60;24.30;;;;;;5015850;28;20482;-76
2021/04/28 13:15:38;;;;;;;10.90;9.67;;;26.60;25.40;;;;;;5034428;28;20534;-76
2021/04/28 13:18:07;;;;;;;10.00;9.10;;;26.60;23.90;;;;;;5034637;28;20836;-76